Time;durP1;ratioP1;P1;durP2;ratioP2;P2;SDS_P1;SDS_P2;PMS_P1;PMS_P2;Temp;Humidity;BMP_temperature;BMP_pressure;BME280_temperature;BME280_humidity;BME280_pressure;Samples;Min_cycle;Max_cycle;Signal;HPM_P1;HPM_P2
2021/08/20 00:00:38;;;;;;;8.73;4.13;;;;;;;;;;5033569;28;20025;-59
2021/08/20 00:03:05;;;;;;;7.32;3.72;;;;;;;;;;5035126;28;20392;-59
2021/08/20 00:05:30;;;;;;;6.50;4.00;;;;;;;;;;5033078;28;20485;-59
2021/08/20 00:07:56;;;;;;;6.68;4.00;;;;;;;;;;5035400;28;20030;-59
2021/08/20 00:10:22;;;;;;;8.75;4.40;;;;;;;;;;5035222;28;20484;-59
2021/08/20 00:12:48;;;;;;;13.18;4.22;;;;;;;;;;5034777;28;20029;-62
2021/08/20 00:15:14;;;;;;;9.23;4.40;;;;;;;;;;5033231;28;20034;-59
2021/08/20 00:17:42;;;;;;;10.43;3.75;;;;;;;;;;5033165;28;20026;-59
2021/08/20 00:20:08;;;;;;;8.43;4.00;;;;;;;;;;5034464;28;20033;-59
2021/08/20 00:22:34;;;;;;;7.57;4.60;;;;;;;;;;5035041;28;20810;-59
2021/08/20 00:25:00;;;;;;;7.55;4.93;;;;;;;;;;5034703;28;20539;-59
2021/08/20 00:27:26;;;;;;;10.65;4.55;;;;;;;;;;5031941;28;20037;-60
2021/08/20 00:29:52;;;;;;;8.80;4.50;;;;;;;;;;5018869;28;20151;-59
2021/08/20 00:32:18;;;;;;;6.20;4.07;;;;;;;;;;5032889;28;20078;-59
2021/08/20 00:34:44;;;;;;;8.60;5.13;;;;;;;;;;5034762;28;20065;-59
2021/08/20 00:37:10;;;;;;;9.35;4.97;;;;;;;;;;5034241;28;20100;-59
2021/08/20 00:39:38;;;;;;;9.52;4.63;;;;;;;;;;5033500;28;20037;-59
2021/08/20 00:42:05;;;;;;;10.35;4.70;;;;;;;;;;5034173;28;20020;-59
2021/08/20 00:44:31;;;;;;;7.38;4.97;;;;;;;;;;5032491;28;20025;-59
2021/08/20 00:46:57;;;;;;;11.30;4.75;;;;;;;;;;5034390;28;20512;-59
2021/08/20 00:49:23;;;;;;;10.93;4.70;;;;;;;;;;5034184;28;20112;-59
2021/08/20 00:51:49;;;;;;;11.70;4.55;;;;;;;;;;5034430;28;20029;-59
2021/08/20 00:54:18;;;;;;;9.65;4.85;;;;;;;;;;5034417;28;20167;-65
2021/08/20 00:56:44;;;;;;;8.48;4.22;;;;;;;;;;5032639;28;20161;-65
2021/08/20 00:59:12;;;;;;;7.72;4.43;;;;;;;;;;5033188;28;20125;-65
2021/08/20 01:01:38;;;;;;;8.43;4.93;;;;;;;;;;5034327;28;20041;-65
2021/08/20 01:04:05;;;;;;;7.30;4.32;;;;;;;;;;5034297;28;20033;-65
2021/08/20 01:06:31;;;;;;;10.98;5.03;;;;;;;;;;5032604;28;20041;-65
2021/08/20 01:08:57;;;;;;;8.55;4.85;;;;;;;;;;5033455;28;20032;-65
2021/08/20 01:11:24;;;;;;;14.57;4.47;;;;;;;;;;5032008;28;20081;-65
2021/08/20 01:13:50;;;;;;;9.60;4.80;;;;;;;;;;5034316;28;20120;-65
2021/08/20 01:16:16;;;;;;;13.68;4.60;;;;;;;;;;5034095;28;20484;-65
2021/08/20 01:18:42;;;;;;;7.28;4.10;;;;;;;;;;5032289;28;20105;-65
2021/08/20 01:21:10;;;;;;;11.63;4.72;;;;;;;;;;5033626;28;20039;-65
2021/08/20 01:23:38;;;;;;;12.43;4.75;;;;;;;;;;5031917;28;20057;-65
2021/08/20 01:26:04;;;;;;;8.75;4.80;;;;;;;;;;5029288;28;20120;-65
2021/08/20 01:28:31;;;;;;;9.45;4.60;;;;;;;;;;5034023;28;20041;-65
2021/08/20 01:31:04;;;;;;;7.80;4.72;;;;;;;;;;5033040;28;20076;-65
2021/08/20 01:33:30;;;;;;;9.30;4.38;;;;;;;;;;5032525;28;20060;-65
2021/08/20 01:35:56;;;;;;;11.65;4.47;;;;;;;;;;5033872;28;20051;-65
2021/08/20 01:38:23;;;;;;;7.82;4.38;;;;;;;;;;5031563;28;20101;-65
2021/08/20 01:40:49;;;;;;;8.80;4.18;;;;;;;;;;5033393;28;20037;-65
2021/08/20 01:43:15;;;;;;;7.80;4.72;;;;;;;;;;5033574;28;20112;-65
2021/08/20 01:45:42;;;;;;;9.77;4.50;;;;;;;;;;5032332;28;20576;-65
2021/08/20 01:48:08;;;;;;;7.78;4.50;;;;;;;;;;5033553;28;20392;-65
2021/08/20 01:50:37;;;;;;;10.38;4.60;;;;;;;;;;5031782;28;20097;-65
2021/08/20 01:53:03;;;;;;;7.45;4.60;;;;;;;;;;5033616;28;20122;-65
2021/08/20 01:55:29;;;;;;;9.52;5.38;;;;;;;;;;5033446;28;20039;-65
2021/08/20 01:57:55;;;;;;;9.27;4.65;;;;;;;;;;5031912;28;20100;-65
2021/08/20 02:00:21;;;;;;;8.48;4.80;;;;;;;;;;5033728;28;20469;-65
2021/08/20 02:02:47;;;;;;;8.27;4.88;;;;;;;;;;5032322;28;20033;-65
2021/08/20 02:05:13;;;;;;;8.55;4.60;;;;;;;;;;5032457;28;20021;-65
2021/08/20 02:07:40;;;;;;;9.43;4.63;;;;;;;;;;5033102;28;20254;-65
2021/08/20 02:10:07;;;;;;;8.17;4.67;;;;;;;;;;5033417;28;20040;-65
2021/08/20 02:12:34;;;;;;;8.65;4.63;;;;;;;;;;5033554;28;20033;-65
2021/08/20 02:15:00;;;;;;;8.98;5.38;;;;;;;;;;5032950;28;20021;-65
2021/08/20 02:17:26;;;;;;;11.48;5.30;;;;;;;;;;5031175;28;20032;-65
2021/08/20 02:19:52;;;;;;;11.60;4.68;;;;;;;;;;5031890;28;20033;-65
2021/08/20 02:22:18;;;;;;;7.75;4.22;;;;;;;;;;5032874;28;20026;-65
2021/08/20 02:24:44;;;;;;;12.50;5.38;;;;;;;;;;5031124;28;20076;-65
2021/08/20 02:27:10;;;;;;;13.10;5.03;;;;;;;;;;5033418;28;20040;-65
2021/08/20 02:29:36;;;;;;;8.75;4.63;;;;;;;;;;5031409;28;20102;-65
2021/08/20 02:32:02;;;;;;;9.27;4.65;;;;;;;;;;5033004;28;20491;-65
2021/08/20 02:34:28;;;;;;;9.15;4.72;;;;;;;;;;5032879;28;20029;-65
2021/08/20 02:36:54;;;;;;;10.30;5.43;;;;;;;;;;5031817;28;20093;-65
2021/08/20 02:39:20;;;;;;;8.27;4.88;;;;;;;;;;5033194;28;20458;-65
2021/08/20 02:41:46;;;;;;;8.15;4.78;;;;;;;;;;5032288;28;20113;-65
2021/08/20 02:44:12;;;;;;;8.55;4.55;;;;;;;;;;5031667;28;20128;-65
2021/08/20 02:46:39;;;;;;;9.75;4.43;;;;;;;;;;5033034;28;20107;-65
2021/08/20 02:49:05;;;;;;;9.40;4.65;;;;;;;;;;5036449;28;20028;-65
2021/08/20 02:51:31;;;;;;;9.52;4.72;;;;;;;;;;5036867;28;20461;-65
2021/08/20 02:53:58;;;;;;;8.45;4.18;;;;;;;;;;5034501;28;20021;-65
2021/08/20 02:56:24;;;;;;;10.13;4.43;;;;;;;;;;5045904;28;20025;-65
2021/08/20 02:58:50;;;;;;;7.45;4.30;;;;;;;;;;5036281;28;20381;-65
2021/08/20 03:01:16;;;;;;;8.30;4.30;;;;;;;;;;5036149;28;20099;-65
2021/08/20 03:03:43;;;;;;;7.85;4.50;;;;;;;;;;5035061;28;20541;-65
2021/08/20 03:06:09;;;;;;;10.85;4.70;;;;;;;;;;5036431;28;20480;-65
2021/08/20 03:08:37;;;;;;;10.70;4.50;;;;;;;;;;5034184;28;20053;-65
2021/08/20 03:11:03;;;;;;;10.68;4.10;;;;;;;;;;5036031;28;20029;-65
2021/08/20 03:13:29;;;;;;;10.18;4.72;;;;;;;;;;5035880;28;20025;-65
2021/08/20 03:15:55;;;;;;;8.07;4.40;;;;;;;;;;5038469;28;20025;-65
2021/08/20 03:18:21;;;;;;;7.63;4.30;;;;;;;;;;5036389;28;20108;-65
2021/08/20 03:20:48;;;;;;;6.57;4.43;;;;;;;;;;5035294;28;20029;-65
2021/08/20 03:23:14;;;;;;;6.97;4.13;;;;;;;;;;5034185;28;20022;-65
2021/08/20 03:25:40;;;;;;;13.95;4.53;;;;;;;;;;5035335;28;20053;-65
2021/08/20 03:28:07;;;;;;;10.10;4.35;;;;;;;;;;5035649;28;20083;-65
2021/08/20 03:30:33;;;;;;;8.05;4.30;;;;;;;;;;5034341;28;20018;-65
2021/08/20 03:32:59;;;;;;;8.50;4.45;;;;;;;;;;5035797;28;20116;-64
2021/08/20 03:35:26;;;;;;;9.48;4.65;;;;;;;;;;5033315;28;20096;-64
2021/08/20 03:37:52;;;;;;;10.02;4.65;;;;;;;;;;5033994;28;20029;-64
2021/08/20 03:40:18;;;;;;;9.30;4.72;;;;;;;;;;5035711;28;20026;-64
2021/08/20 03:42:44;;;;;;;9.75;4.65;;;;;;;;;;5033760;28;20030;-64
2021/08/20 03:45:11;;;;;;;7.35;4.55;;;;;;;;;;5033130;28;20025;-64
2021/08/20 03:47:37;;;;;;;7.22;4.53;;;;;;;;;;5033176;28;20037;-64
2021/08/20 03:50:06;;;;;;;7.47;4.55;;;;;;;;;;5032625;28;20488;-64
2021/08/20 03:52:32;;;;;;;13.95;5.10;;;;;;;;;;5032795;28;20033;-64
2021/08/20 03:54:58;;;;;;;8.30;4.72;;;;;;;;;;5033163;28;20331;-64
2021/08/20 03:57:24;;;;;;;9.82;4.72;;;;;;;;;;5032955;28;20033;-66
2021/08/20 03:59:50;;;;;;;9.68;5.20;;;;;;;;;;5033193;28;20029;-66
2021/08/20 04:02:16;;;;;;;9.23;5.40;;;;;;;;;;5033346;28;20029;-66
2021/08/20 04:04:42;;;;;;;8.13;4.85;;;;;;;;;;5033841;28;20393;-65
2021/08/20 04:07:08;;;;;;;9.02;5.40;;;;;;;;;;5035041;28;20037;-66
2021/08/20 04:09:34;;;;;;;8.77;4.97;;;;;;;;;;5032575;28;20452;-66
2021/08/20 04:12:00;;;;;;;11.27;5.55;;;;;;;;;;5034810;28;20120;-65
2021/08/20 04:14:26;;;;;;;9.93;5.53;;;;;;;;;;5032867;28;20123;-66
2021/08/20 04:16:52;;;;;;;10.60;5.22;;;;;;;;;;5033496;28;20026;-65
2021/08/20 04:19:18;;;;;;;8.07;5.15;;;;;;;;;;5034546;28;20040;-65
2021/08/20 04:21:44;;;;;;;12.32;5.38;;;;;;;;;;5033490;28;20026;-65
2021/08/20 04:24:12;;;;;;;11.80;5.20;;;;;;;;;;5034552;28;20025;-65
2021/08/20 04:26:38;;;;;;;;;;;;;;;;;;5033154;28;20045;-66
2021/08/20 04:29:04;;;;;;;8.85;5.10;;;;;;;;;;5030131;28;20292;-66
2021/08/20 04:31:30;;;;;;;9.30;4.78;;;;;;;;;;5034921;28;20025;-66
2021/08/20 04:33:56;;;;;;;7.65;4.78;;;;;;;;;;5032769;28;20112;-66
2021/08/20 04:36:22;;;;;;;8.77;5.18;;;;;;;;;;5034945;28;20473;-66
2021/08/20 04:38:48;;;;;;;12.88;5.72;;;;;;;;;;5033396;28;20064;-66
2021/08/20 04:41:14;;;;;;;9.45;5.13;;;;;;;;;;5033231;28;20025;-66
2021/08/20 04:43:40;;;;;;;10.75;5.50;;;;;;;;;;5034696;28;20500;-66
2021/08/20 04:46:06;;;;;;;10.75;5.45;;;;;;;;;;5033989;28;20544;-66
2021/08/20 04:48:32;;;;;;;8.82;5.45;;;;;;;;;;5034188;28;20025;-66
2021/08/20 04:50:58;;;;;;;9.65;5.78;;;;;;;;;;5034253;28;20029;-66
2021/08/20 04:53:29;;;;;;;13.73;6.25;;;;;;;;;;5032048;28;20025;-65
2021/08/20 04:55:55;;;;;;;11.30;5.45;;;;;;;;;;5032765;28;20040;-65
2021/08/20 04:58:21;;;;;;;10.68;5.70;;;;;;;;;;5033929;28;20106;-65
2021/08/20 05:00:48;;;;;;;10.15;5.05;;;;;;;;;;5034629;28;20080;-65
2021/08/20 05:03:14;;;;;;;11.70;5.68;;;;;;;;;;5033783;28;20050;-65
2021/08/20 05:05:41;;;;;;;8.70;5.38;;;;;;;;;;5032028;28;20026;-65
2021/08/20 05:08:07;;;;;;;12.27;5.57;;;;;;;;;;5033849;28;20326;-66
2021/08/20 05:10:33;;;;;;;11.35;5.55;;;;;;;;;;5031185;28;20040;-65
2021/08/20 05:12:59;;;;;;;10.63;5.40;;;;;;;;;;5031902;28;20033;-65
2021/08/20 05:15:27;;;;;;;9.20;5.15;;;;;;;;;;5034035;28;20112;-65
2021/08/20 05:17:56;;;;;;;10.27;5.53;;;;;;;;;;5017560;28;20092;-66
2021/08/20 05:20:23;;;;;;;9.27;5.68;;;;;;;;;;5027619;28;20071;-66
2021/08/20 05:22:51;;;;;;;10.18;5.55;;;;;;;;;;5034119;28;20539;-66
2021/08/20 05:25:17;;;;;;;;;;;;;;;;;;5032679;28;20134;-66
2021/08/20 05:27:43;;;;;;;10.15;5.22;;;;;;;;;;5032339;28;20384;-66
2021/08/20 05:30:10;;;;;;;8.75;5.30;;;;;;;;;;5032671;28;20377;-66
2021/08/20 05:32:36;;;;;;;10.15;5.43;;;;;;;;;;5030922;28;20033;-67
2021/08/20 05:35:03;;;;;;;14.07;5.80;;;;;;;;;;5033754;28;20031;-67
2021/08/20 05:37:29;;;;;;;8.75;5.03;;;;;;;;;;5033918;28;20450;-66
2021/08/20 05:39:55;;;;;;;9.75;5.00;;;;;;;;;;5032433;28;20096;-66
2021/08/20 05:42:21;;;;;;;10.68;5.38;;;;;;;;;;5033873;28;20029;-66
2021/08/20 05:44:47;;;;;;;12.05;5.20;;;;;;;;;;5032003;28;20041;-66
2021/08/20 05:47:13;;;;;;;16.13;6.28;;;;;;;;;;5032407;28;20036;-66
2021/08/20 05:49:39;;;;;;;13.77;5.97;;;;;;;;;;5033781;28;20482;-66
2021/08/20 05:52:05;;;;;;;13.60;5.97;;;;;;;;;;5032112;28;20113;-66
2021/08/20 05:54:31;;;;;;;10.73;5.22;;;;;;;;;;5033320;28;20036;-66
2021/08/20 05:56:59;;;;;;;12.48;5.63;;;;;;;;;;5031633;28;20029;-66
2021/08/20 05:59:25;;;;;;;9.82;5.63;;;;;;;;;;5031244;28;20030;-66
2021/08/20 06:01:51;;;;;;;10.15;5.53;;;;;;;;;;5032310;28;20034;-66
2021/08/20 06:04:17;;;;;;;9.10;5.07;;;;;;;;;;5030104;28;20022;-66
2021/08/20 06:06:43;;;;;;;8.55;5.38;;;;;;;;;;5030071;28;20038;-66
2021/08/20 06:09:09;;;;;;;9.88;5.85;;;;;;;;;;5030281;28;20040;-66
2021/08/20 06:11:35;;;;;;;10.60;5.38;;;;;;;;;;5029330;28;20029;-65
2021/08/20 06:14:01;;;;;;;9.88;5.38;;;;;;;;;;5031639;28;20022;-65
2021/08/20 06:16:27;;;;;;;9.32;4.60;;;;;;;;;;5029791;28;20105;-64
2021/08/20 06:18:53;;;;;;;9.60;4.20;;;;;;;;;;5030502;28;20018;-64
2021/08/20 06:21:19;;;;;;;11.32;5.00;;;;;;;;;;5030286;28;20033;-65
2021/08/20 06:23:45;;;;;;;14.65;5.47;;;;;;;;;;5030018;28;20049;-65
2021/08/20 06:26:11;;;;;;;15.40;5.63;;;;;;;;;;5033963;28;20084;-64
2021/08/20 06:28:37;;;;;;;10.98;5.20;;;;;;;;;;5036132;28;20496;-66
2021/08/20 06:31:04;;;;;;;12.45;6.05;;;;;;;;;;5036949;28;20076;-65
2021/08/20 06:33:34;;;;;;;8.65;4.53;;;;;;;;;;5030078;28;20031;-65
2021/08/20 06:36:00;;;;;;;7.13;4.53;;;;;;;;;;5035202;28;20051;-65
2021/08/20 06:38:26;;;;;;;8.38;4.20;;;;;;;;;;5033292;28;20367;-64
2021/08/20 06:40:52;;;;;;;8.70;4.38;;;;;;;;;;5035099;28;20021;-66
2021/08/20 06:43:18;;;;;;;9.45;4.65;;;;;;;;;;5039346;28;20393;-67
2021/08/20 06:45:44;;;;;;;6.70;4.35;;;;;;;;;;5043636;28;20030;-65
2021/08/20 06:48:10;;;;;;;6.85;4.35;;;;;;;;;;5035858;28;20055;-67
2021/08/20 06:50:36;;;;;;;7.55;4.25;;;;;;;;;;5034707;28;20103;-67
2021/08/20 06:53:02;;;;;;;11.75;4.60;;;;;;;;;;5037311;28;20034;-69
2021/08/20 06:55:32;;;;;;;7.72;4.30;;;;;;;;;;5039466;28;20388;-68
2021/08/20 06:57:58;;;;;;;8.68;4.32;;;;;;;;;;5034186;28;20052;-68
2021/08/20 07:00:24;;;;;;;9.63;4.57;;;;;;;;;;5036382;28;20029;-70
2021/08/20 07:02:50;;;;;;;9.82;5.22;;;;;;;;;;5035494;28;20032;-69
2021/08/20 07:05:16;;;;;;;8.07;4.55;;;;;;;;;;5038798;28;20112;-67
2021/08/20 07:07:43;;;;;;;9.45;4.72;;;;;;;;;;5035412;28;20044;-67
2021/08/20 07:10:09;;;;;;;8.13;4.15;;;;;;;;;;5034896;28;20028;-67
2021/08/20 07:12:36;;;;;;;8.90;4.50;;;;;;;;;;5036372;28;20526;-68
2021/08/20 07:15:03;;;;;;;9.68;4.78;;;;;;;;;;5047231;28;20370;-71
2021/08/20 07:17:29;;;;;;;9.80;4.45;;;;;;;;;;5033786;28;20028;-68
2021/08/20 07:19:55;;;;;;;6.63;4.00;;;;;;;;;;5035659;28;20029;-67
2021/08/20 07:22:21;;;;;;;7.32;4.57;;;;;;;;;;5042096;28;20028;-68
2021/08/20 07:24:47;;;;;;;8.80;4.93;;;;;;;;;;5042888;28;20125;-71
2021/08/20 07:27:12;;;;;;;7.85;4.40;;;;;;;;;;5032366;28;20401;-67
2021/08/20 07:29:38;;;;;;;8.63;4.22;;;;;;;;;;5028270;28;20029;-68
2021/08/20 07:32:05;;;;;;;8.63;4.75;;;;;;;;;;5031482;28;20014;-67
2021/08/20 07:34:31;;;;;;;9.63;4.30;;;;;;;;;;5039819;28;20025;-67
2021/08/20 07:36:57;;;;;;;11.05;4.82;;;;;;;;;;5034003;28;20384;-67
2021/08/20 07:39:26;;;;;;;9.90;4.20;;;;;;;;;;5033687;28;20034;-67
2021/08/20 07:41:52;;;;;;;7.25;4.32;;;;;;;;;;5040345;28;20037;-67
2021/08/20 07:44:18;;;;;;;10.77;4.45;;;;;;;;;;5044510;28;20033;-67
2021/08/20 07:46:44;;;;;;;7.32;4.25;;;;;;;;;;5035514;28;20060;-68
2021/08/20 07:49:10;;;;;;;8.85;4.15;;;;;;;;;;5034166;28;20021;-67
2021/08/20 07:51:36;;;;;;;10.13;4.70;;;;;;;;;;5035171;28;20497;-67
2021/08/20 07:54:02;;;;;;;8.63;4.47;;;;;;;;;;5037395;28;20024;-67
2021/08/20 07:56:28;;;;;;;8.07;4.03;;;;;;;;;;5033190;28;20044;-67
2021/08/20 07:58:55;;;;;;;8.07;4.18;;;;;;;;;;5034793;28;20013;-68
2021/08/20 08:01:21;;;;;;;9.82;4.20;;;;;;;;;;5033863;28;20067;-67
2021/08/20 08:03:47;;;;;;;10.00;4.68;;;;;;;;;;5037376;28;20049;-67
2021/08/20 08:06:13;;;;;;;8.93;4.60;;;;;;;;;;5035405;28;20076;-67
2021/08/20 08:08:42;;;;;;;9.18;4.15;;;;;;;;;;5032352;28;20056;-67
2021/08/20 08:11:09;;;;;;;7.82;4.45;;;;;;;;;;5030827;28;20438;-67
2021/08/20 08:13:35;;;;;;;7.90;4.15;;;;;;;;;;5039638;28;20029;-67
2021/08/20 08:16:02;;;;;;;8.73;4.45;;;;;;;;;;5040240;28;20018;-67
2021/08/20 08:18:28;;;;;;;6.95;4.05;;;;;;;;;;5034926;28;20034;-68
2021/08/20 08:20:54;;;;;;;6.43;4.28;;;;;;;;;;5034705;28;20101;-67
2021/08/20 08:23:20;;;;;;;7.93;4.57;;;;;;;;;;5035082;28;20051;-67
2021/08/20 08:25:46;;;;;;;9.18;4.28;;;;;;;;;;5035014;28;20049;-67
2021/08/20 08:28:12;;;;;;;6.57;4.38;;;;;;;;;;5033514;28;20049;-67
2021/08/20 08:30:39;;;;;;;8.98;4.40;;;;;;;;;;5032797;28;20030;-67
2021/08/20 08:33:06;;;;;;;9.68;3.97;;;;;;;;;;5033753;28;20508;-66
2021/08/20 08:35:32;;;;;;;7.15;4.28;;;;;;;;;;5034779;28;20029;-66
2021/08/20 08:38:04;;;;;;;7.78;4.25;;;;;;;;;;5033527;28;20017;-67
2021/08/20 08:40:31;;;;;;;10.38;4.50;;;;;;;;;;5032247;28;20040;-66
2021/08/20 08:42:58;;;;;;;7.35;4.25;;;;;;;;;;5030751;28;20059;-67
2021/08/20 08:45:24;;;;;;;8.13;4.30;;;;;;;;;;5045325;28;20040;-67
2021/08/20 08:47:53;;;;;;;7.07;4.20;;;;;;;;;;5032028;28;20041;-67
2021/08/20 08:50:19;;;;;;;8.27;4.50;;;;;;;;;;5031709;28;20575;-67
2021/08/20 08:52:45;;;;;;;7.68;4.50;;;;;;;;;;5033418;28;20037;-67
2021/08/20 08:55:11;;;;;;;6.30;4.05;;;;;;;;;;5031828;28;20060;-61
2021/08/20 08:57:37;;;;;;;7.37;4.37;;;;;;;;;;5034175;28;20389;-61
2021/08/20 09:00:05;;;;;;;7.95;4.30;;;;;;;;;;5034608;28;20059;-60
2021/08/20 09:02:32;;;;;;;7.55;4.13;;;;;;;;;;5032357;28;20030;-60
2021/08/20 09:04:59;;;;;;;8.95;4.47;;;;;;;;;;5033773;28;20029;-61
2021/08/20 09:07:26;;;;;;;8.02;4.47;;;;;;;;;;5035974;28;20144;-61
2021/08/20 09:10:10;;;;;;;8.45;4.90;;;;;;;;;;5034097;28;20461;-61
2021/08/20 09:12:36;;;;;;;7.78;4.25;;;;;;;;;;5034361;28;20033;-61
2021/08/20 09:15:03;;;;;;;6.95;4.32;;;;;;;;;;5033772;28;20017;-61
2021/08/20 09:17:32;;;;;;;8.77;4.40;;;;;;;;;;5032050;28;20039;-61
2021/08/20 09:20:18;;;;;;;7.85;4.50;;;;;;;;;;5032681;28;20120;-60
2021/08/20 09:22:45;;;;;;;7.25;4.47;;;;;;;;;;5033930;28;20025;-60
2021/08/20 09:25:11;;;;;;;;;;;;;;;;;;5035032;28;20124;-60
2021/08/20 09:27:37;;;;;;;7.10;4.07;;;;;;;;;;5043496;28;20036;-60
2021/08/20 09:30:07;;;;;;;11.10;4.83;;;;;;;;;;5034309;28;20427;-60
2021/08/20 09:32:37;;;;;;;9.57;4.80;;;;;;;;;;5032090;28;20379;-60
2021/08/20 09:35:04;;;;;;;6.82;4.40;;;;;;;;;;5032005;28;20029;-60
2021/08/20 09:37:31;;;;;;;9.70;4.93;;;;;;;;;;5034026;28;20037;-60
2021/08/20 09:40:01;;;;;;;13.23;4.80;;;;;;;;;;5033441;28;20033;-60
2021/08/20 09:42:27;;;;;;;9.45;5.15;;;;;;;;;;5033399;28;20034;-60
2021/08/20 09:45:12;;;;;;;7.50;4.28;;;;;;;;;;5016681;28;20052;-60
2021/08/20 09:47:45;;;;;;;8.65;4.47;;;;;;;;;;5029840;28;20563;-60
2021/08/20 09:50:11;;;;;;;9.93;4.95;;;;;;;;;;5029729;28;20026;-60
2021/08/20 09:52:37;;;;;;;9.93;5.35;;;;;;;;;;5033811;28;20120;-60
2021/08/20 09:55:04;;;;;;;8.07;4.97;;;;;;;;;;5032982;28;20096;-60
2021/08/20 09:57:32;;;;;;;7.80;4.70;;;;;;;;;;5032237;28;20514;-60
2021/08/20 09:59:58;;;;;;;10.10;4.90;;;;;;;;;;5035468;28;20029;-60
2021/08/20 10:02:26;;;;;;;10.00;4.90;;;;;;;;;;5035357;28;20025;-60
2021/08/20 10:04:54;;;;;;;8.25;4.90;;;;;;;;;;5037612;28;20029;-60
2021/08/20 10:07:20;;;;;;;10.43;4.90;;;;;;;;;;5037602;28;20539;-60
2021/08/20 10:09:47;;;;;;;9.15;4.78;;;;;;;;;;5037365;28;20034;-60
2021/08/20 10:12:18;;;;;;;9.75;4.50;;;;;;;;;;5035621;28;20081;-60
2021/08/20 10:14:45;;;;;;;9.60;4.80;;;;;;;;;;5035662;28;20358;-60
2021/08/20 10:17:12;;;;;;;12.88;5.00;;;;;;;;;;5036504;28;20396;-60
2021/08/20 10:19:38;;;;;;;9.90;4.97;;;;;;;;;;5037414;28;20030;-60
2021/08/20 10:22:05;;;;;;;8.35;4.53;;;;;;;;;;5036122;28;20037;-60
2021/08/20 10:24:31;;;;;;;9.27;4.77;;;;;;;;;;5042355;28;20091;-60
2021/08/20 10:27:00;;;;;;;8.48;4.90;;;;;;;;;;5037174;28;20290;-60
2021/08/20 10:29:27;;;;;;;10.18;4.93;;;;;;;;;;5034521;28;20057;-60
2021/08/20 10:31:53;;;;;;;12.82;4.93;;;;;;;;;;5035445;28;20033;-60
2021/08/20 10:34:31;;;;;;;8.02;4.80;;;;;;;;;;5037388;28;20021;-60
2021/08/20 10:37:04;;;;;;;12.50;4.90;;;;;;;;;;5036439;28;20033;-60
2021/08/20 10:39:31;;;;;;;9.38;4.88;;;;;;;;;;5035482;28;20061;-60
2021/08/20 10:42:05;;;;;;;11.43;5.00;;;;;;;;;;5036670;28;20108;-60
2021/08/20 10:44:54;;;;;;;9.38;4.90;;;;;;;;;;5034345;28;20060;-60
2021/08/20 10:47:23;;;;;;;11.88;5.07;;;;;;;;;;5034389;28;20075;-60
2021/08/20 10:49:50;;;;;;;9.43;5.15;;;;;;;;;;5036569;28;20026;-60
2021/08/20 10:52:23;;;;;;;11.95;4.82;;;;;;;;;;5035145;28;20028;-60
2021/08/20 10:54:49;;;;;;;8.38;4.63;;;;;;;;;;5036392;28;20026;-60
2021/08/20 10:57:33;;;;;;;9.07;4.57;;;;;;;;;;5036542;28;20108;-60
2021/08/20 10:59:59;;;;;;;9.20;4.70;;;;;;;;;;5021621;28;20037;-60
2021/08/20 11:02:25;;;;;;;14.48;5.20;;;;;;;;;;5033842;28;20026;-60
2021/08/20 11:05:00;;;;;;;10.40;4.93;;;;;;;;;;5036665;28;20025;-60
2021/08/20 11:07:39;;;;;;;8.07;5.03;;;;;;;;;;5035844;28;20037;-60
2021/08/20 11:10:11;;;;;;;9.77;5.18;;;;;;;;;;5035520;28;20030;-60
2021/08/20 11:13:00;;;;;;;8.80;4.72;;;;;;;;;;5036192;28;20428;-60
2021/08/20 11:15:30;;;;;;;9.60;4.82;;;;;;;;;;5031757;28;20495;-60
2021/08/20 11:18:04;;;;;;;10.38;5.03;;;;;;;;;;5019521;28;20033;-60
2021/08/20 11:20:43;;;;;;;12.30;4.90;;;;;;;;;;5034128;28;20060;-60
2021/08/20 11:25:35;;;;;;;10.10;5.00;;;;;;;;;;5035979;28;20057;-60
2021/08/20 11:28:03;;;;;;;8.80;5.03;;;;;;;;;;5035829;28;20033;-60
2021/08/20 11:30:29;;;;;;;11.55;5.05;;;;;;;;;;5034870;28;20087;-60
2021/08/20 11:33:28;;;;;;;12.60;4.68;;;;;;;;;;5035917;28;20038;-60
2021/08/20 11:36:00;;;;;;;7.85;4.90;;;;;;;;;;4997300;28;20401;-60
2021/08/20 11:38:33;;;;;;;11.15;5.03;;;;;;;;;;5045032;28;20060;-60
2021/08/20 11:41:09;;;;;;;11.35;4.82;;;;;;;;;;5035843;28;20061;-60
2021/08/20 11:43:35;;;;;;;8.43;5.07;;;;;;;;;;5034115;28;20025;-60
2021/08/20 11:46:05;;;;;;;10.07;5.15;;;;;;;;;;5035750;28;20025;-60
2021/08/20 11:48:40;;;;;;;9.35;5.55;;;;;;;;;;5035727;28;20124;-60
2021/08/20 11:51:06;;;;;;;11.52;5.90;;;;;;;;;;5035433;28;20021;-60
2021/08/20 11:53:32;;;;;;;8.52;5.15;;;;;;;;;;5033584;28;20088;-60
2021/08/20 11:56:12;;;;;;;10.43;5.30;;;;;;;;;;5035698;28;20476;-60
2021/08/20 11:58:38;;;;;;;8.20;5.05;;;;;;;;;;5035194;28;20128;-60
2021/08/20 12:01:04;;;;;;;13.05;5.15;;;;;;;;;;5035557;28;20029;-60
2021/08/20 12:03:30;;;;;;;8.20;5.05;;;;;;;;;;5034749;28;20060;-60
2021/08/20 12:06:06;;;;;;;7.60;4.82;;;;;;;;;;5035474;28;20025;-60
2021/08/20 12:08:32;;;;;;;8.38;4.93;;;;;;;;;;5032616;28;20033;-60
2021/08/20 12:10:58;;;;;;;12.77;4.80;;;;;;;;;;5033663;28;20029;-60
2021/08/20 12:13:24;;;;;;;8.98;5.03;;;;;;;;;;5035272;28;20122;-60
2021/08/20 12:15:50;;;;;;;11.02;5.00;;;;;;;;;;5035237;28;20057;-60
2021/08/20 12:18:20;;;;;;;7.80;4.80;;;;;;;;;;5034685;28;20083;-60
2021/08/20 12:20:46;;;;;;;8.57;5.00;;;;;;;;;;5033648;28;20044;-60
2021/08/20 12:23:12;;;;;;;9.70;5.00;;;;;;;;;;5032831;28;20033;-60
2021/08/20 12:25:42;;;;;;;8.73;5.30;;;;;;;;;;5034946;28;20045;-60
2021/08/20 12:28:15;;;;;;;8.65;5.00;;;;;;;;;;5034614;28;20076;-60
2021/08/20 12:30:42;;;;;;;8.07;5.13;;;;;;;;;;5034392;28;20096;-60
2021/08/20 12:33:08;;;;;;;10.15;5.20;;;;;;;;;;5034881;28;20492;-60
2021/08/20 12:35:35;;;;;;;10.35;5.05;;;;;;;;;;5032967;28;20109;-60
2021/08/20 12:38:01;;;;;;;12.82;4.55;;;;;;;;;;5032864;28;20553;-60
2021/08/20 12:40:37;;;;;;;8.38;4.28;;;;;;;;;;5034897;28;20033;-60
2021/08/20 12:43:03;;;;;;;7.68;4.93;;;;;;;;;;5034402;28;20029;-60
2021/08/20 12:45:29;;;;;;;8.48;4.85;;;;;;;;;;5034554;28;20029;-60
2021/08/20 12:48:03;;;;;;;11.55;5.28;;;;;;;;;;5033205;28;20033;-60
2021/08/20 12:50:29;;;;;;;10.45;4.95;;;;;;;;;;5029070;28;20036;-60
2021/08/20 12:53:03;;;;;;;9.32;4.80;;;;;;;;;;5034031;28;20148;-60
2021/08/20 12:55:29;;;;;;;9.88;4.75;;;;;;;;;;5034441;28;20033;-60
2021/08/20 12:57:56;;;;;;;8.32;5.07;;;;;;;;;;5034404;28;20025;-60
2021/08/20 13:00:22;;;;;;;10.10;4.70;;;;;;;;;;5033082;28;20025;-60
2021/08/20 13:02:48;;;;;;;10.40;4.55;;;;;;;;;;5032834;28;20479;-60
2021/08/20 13:05:14;;;;;;;8.32;4.45;;;;;;;;;;5032876;28;20483;-60
2021/08/20 13:07:40;;;;;;;10.68;4.47;;;;;;;;;;5034048;28;20527;-60
2021/08/20 13:10:06;;;;;;;12.20;5.00;;;;;;;;;;5034252;28;20029;-60
2021/08/20 13:12:32;;;;;;;9.40;4.80;;;;;;;;;;5034380;28;20033;-60
2021/08/20 13:14:58;;;;;;;8.95;4.22;;;;;;;;;;5033285;28;20029;-60
2021/08/20 13:17:24;;;;;;;8.13;4.70;;;;;;;;;;5032034;28;20064;-60
2021/08/20 13:19:50;;;;;;;7.55;4.47;;;;;;;;;;5034322;28;20144;-60
2021/08/20 13:22:16;;;;;;;9.98;4.60;;;;;;;;;;5033965;28;20025;-60
2021/08/20 13:24:42;;;;;;;11.80;4.63;;;;;;;;;;5033462;28;20091;-60
2021/08/20 13:27:09;;;;;;;11.98;4.97;;;;;;;;;;5032205;28;20034;-60
2021/08/20 13:29:35;;;;;;;6.80;3.83;;;;;;;;;;5031950;28;20105;-60
2021/08/20 13:32:01;;;;;;;11.30;5.05;;;;;;;;;;5033603;28;20033;-60
2021/08/20 13:34:27;;;;;;;11.90;4.68;;;;;;;;;;5033051;28;20108;-60
2021/08/20 13:36:53;;;;;;;9.02;4.25;;;;;;;;;;5033409;28;20025;-60
2021/08/20 13:39:20;;;;;;;8.02;4.70;;;;;;;;;;5032569;28;20032;-60
2021/08/20 13:41:46;;;;;;;9.30;4.80;;;;;;;;;;5032554;28;20037;-60
2021/08/20 13:44:12;;;;;;;8.75;4.65;;;;;;;;;;5033004;28;20029;-60
2021/08/20 13:46:38;;;;;;;7.88;3.85;;;;;;;;;;5033087;28;20036;-60
2021/08/20 13:49:05;;;;;;;12.23;4.40;;;;;;;;;;5033403;28;20026;-60
2021/08/20 13:51:31;;;;;;;7.67;4.17;;;;;;;;;;5033766;28;20034;-60
2021/08/20 13:53:57;;;;;;;7.97;4.55;;;;;;;;;;5032320;28;20285;-60
2021/08/20 13:56:23;;;;;;;8.35;4.68;;;;;;;;;;5031438;28;20033;-60
2021/08/20 13:58:49;;;;;;;13.02;5.43;;;;;;;;;;5033341;28;20037;-60
2021/08/20 14:01:15;;;;;;;13.35;5.60;;;;;;;;;;5033446;28;20033;-60
2021/08/20 14:03:42;;;;;;;12.90;4.72;;;;;;;;;;5033368;28;20111;-60
2021/08/20 14:06:08;;;;;;;6.50;3.92;;;;;;;;;;5031870;28;20025;-60
2021/08/20 14:08:35;;;;;;;11.63;4.40;;;;;;;;;;5031688;28;20034;-60
2021/08/20 14:11:01;;;;;;;11.60;4.70;;;;;;;;;;5033223;28;20026;-60
2021/08/20 14:13:27;;;;;;;8.65;4.10;;;;;;;;;;5033103;28;20030;-60
2021/08/20 14:15:53;;;;;;;9.20;5.13;;;;;;;;;;5033328;28;20022;-60
2021/08/20 14:18:19;;;;;;;11.10;4.50;;;;;;;;;;5032226;28;20034;-60
2021/08/20 14:20:45;;;;;;;8.32;4.35;;;;;;;;;;5032144;28;20088;-60
2021/08/20 14:23:11;;;;;;;9.93;4.50;;;;;;;;;;5032230;28;20106;-60
2021/08/20 14:25:37;;;;;;;9.57;4.30;;;;;;;;;;5033012;28;20045;-60
2021/08/20 14:28:04;;;;;;;8.07;4.07;;;;;;;;;;5033113;28;20029;-60
2021/08/20 14:30:30;;;;;;;9.52;4.32;;;;;;;;;;5032846;28;20033;-60
2021/08/20 14:32:58;;;;;;;10.65;4.50;;;;;;;;;;5033452;28;20025;-60
2021/08/20 14:35:24;;;;;;;10.63;4.47;;;;;;;;;;5027573;28;20060;-60
2021/08/20 14:37:50;;;;;;;7.38;4.30;;;;;;;;;;5032616;28;20057;-60
2021/08/20 14:40:16;;;;;;;6.53;4.35;;;;;;;;;;5033297;28;20468;-60
2021/08/20 14:42:42;;;;;;;6.50;4.10;;;;;;;;;;5033166;28;20082;-60